Time;durP1;ratioP1;P1;durP2;ratioP2;P2;SDS_P1;SDS_P2;PMS_P1;PMS_P2;Temp;Humidity;BMP_temperature;BMP_pressure;BME280_temperature;BME280_humidity;BME280_pressure;Samples;Min_cycle;Max_cycle;Signal;HPM_P1;HPM_P2
2021/12/07 00:00:37;;;;;;;17.13;11.15;;;5.30;80.20;;;;;;6069481;23;88603;-69
2021/12/07 00:03:04;;;;;;;15.15;10.77;;;5.30;80.60;;;;;;6068356;23;88390;-69
2021/12/07 00:05:31;;;;;;;15.93;11.15;;;5.30;80.90;;;;;;6067056;23;88612;-69
2021/12/07 00:07:58;;;;;;;16.38;11.50;;;5.30;81.00;;;;;;6066650;23;90567;-69
2021/12/07 00:10:26;;;;;;;15.02;10.57;;;5.30;80.00;;;;;;6068570;23;88734;-69
2021/12/07 00:12:53;;;;;;;16.10;9.85;;;5.30;80.00;;;;;;6065935;23;112919;-69
2021/12/07 00:15:22;;;;;;;13.77;10.43;;;5.20;80.10;;;;;;6068926;23;93235;-69
2021/12/07 00:17:52;;;;;;;14.65;10.82;;;5.10;80.30;;;;;;6068652;23;89104;-69
2021/12/07 00:20:21;;;;;;;16.80;11.63;;;5.10;81.00;;;;;;6068037;23;88700;-69
2021/12/07 00:22:52;;;;;;;17.73;11.88;;;5.10;81.50;;;;;;6067045;23;89019;-69
2021/12/07 00:25:19;;;;;;;15.25;11.07;;;5.10;80.90;;;;;;6068377;23;88768;-69
2021/12/07 00:27:46;;;;;;;16.55;10.57;;;5.10;80.80;;;;;;6068372;23;89069;-69
2021/12/07 00:30:14;;;;;;;14.65;10.15;;;5.00;80.80;;;;;;6066653;23;88777;-69
2021/12/07 00:32:48;;;;;;;15.75;10.73;;;4.90;81.10;;;;;;6067009;23;88489;-69
2021/12/07 00:35:34;;;;;;;;;;;4.80;81.60;;;;;;6068733;23;88673;-69
2021/12/07 00:38:06;;;;;;;17.85;11.43;;;4.80;82.50;;;;;;6069411;23;89112;-69
2021/12/07 00:40:34;;;;;;;14.38;10.65;;;4.80;81.80;;;;;;6068821;23;88381;-69
2021/12/07 00:43:01;;;;;;;16.23;11.75;;;4.70;81.30;;;;;;6041602;23;103803;-69
2021/12/07 00:45:32;;;;;;;16.10;11.02;;;4.70;82.00;;;;;;6066392;23;93184;-69
2021/12/07 00:47:59;;;;;;;16.85;11.15;;;4.70;81.90;;;;;;6066904;23;89129;-69
2021/12/07 00:50:28;;;;;;;15.63;10.63;;;4.60;81.60;;;;;;6066442;23;88634;-69
2021/12/07 00:52:57;;;;;;;17.40;11.75;;;4.60;81.90;;;;;;6068429;23;88387;-69
2021/12/07 00:55:27;;;;;;;17.35;11.65;;;4.50;82.00;;;;;;6068130;23;88519;-69
2021/12/07 00:57:57;;;;;;;17.35;12.25;;;4.50;81.60;;;;;;6066761;23;91752;-69
2021/12/07 01:00:28;;;;;;;16.52;11.93;;;4.50;82.40;;;;;;6042564;23;91286;-69
2021/12/07 01:02:55;;;;;;;19.75;13.18;;;4.50;81.60;;;;;;6066750;23;91136;-69
2021/12/07 01:05:30;;;;;;;17.58;11.88;;;4.50;81.80;;;;;;6066056;23;89866;-69
2021/12/07 01:24:41;;;;;;;18.83;12.02;;;4.20;81.80;;;;;;6046102;23;90778;-69
2021/12/07 01:27:18;;;;;;;17.77;11.70;;;4.20;81.70;;;;;;6066728;23;89272;-69
2021/12/07 01:29:50;;;;;;;16.95;10.77;;;4.20;81.80;;;;;;6066906;23;89270;-69
2021/12/07 01:32:40;;;;;;;17.40;11.65;;;4.10;82.10;;;;;;6043204;23;91755;-69
2021/12/07 01:38:27;;;;;;;17.42;12.25;;;4.20;82.10;;;;;;6068071;23;89335;-69
2021/12/07 01:43:42;;;;;;;17.08;11.13;;;4.10;82.00;;;;;;6042229;23;91249;-69
2021/12/07 01:59:33;;;;;;;18.58;11.77;;;4.00;82.40;;;;;;6066365;23;90944;-69
2021/12/07 02:02:04;;;;;;;18.50;12.70;;;4.00;82.50;;;;;;6068114;23;89233;-69
2021/12/07 02:04:31;;;;;;;17.30;11.52;;;4.00;82.60;;;;;;6066050;23;91226;-69
2021/12/07 02:06:59;;;;;;;19.17;12.13;;;4.00;82.00;;;;;;6066148;23;89928;-69
2021/12/07 02:09:28;;;;;;;16.65;10.98;;;4.00;82.30;;;;;;6065817;23;89716;-69
2021/12/07 02:12:00;;;;;;;17.00;10.77;;;3.90;82.10;;;;;;6066039;23;91755;-69
2021/12/07 02:14:30;;;;;;;18.30;12.27;;;3.90;82.30;;;;;;6042481;23;91226;-69
2021/12/07 02:17:04;;;;;;;17.85;12.02;;;3.90;82.90;;;;;;6066182;23;89412;-69
2021/12/07 02:19:31;;;;;;;19.13;12.57;;;3.90;82.90;;;;;;6041728;23;89688;-69
2021/12/07 02:22:00;;;;;;;18.73;12.77;;;3.90;82.70;;;;;;6066475;23;91759;-69
2021/12/07 02:24:34;;;;;;;17.88;12.07;;;3.90;82.30;;;;;;6090437;23;90725;-69
2021/12/07 02:27:02;;;;;;;20.10;13.05;;;3.90;82.30;;;;;;6066213;23;89573;-69
2021/12/07 02:29:29;;;;;;;18.25;12.10;;;4.00;82.90;;;;;;6065509;23;92172;-69
2021/12/07 02:31:58;;;;;;;18.42;11.77;;;3.90;83.20;;;;;;6042040;23;91936;-69
2021/12/07 02:34:25;;;;;;;18.40;11.80;;;3.90;83.20;;;;;;6065843;23;91135;-69
2021/12/07 02:36:54;;;;;;;20.55;12.77;;;3.90;83.60;;;;;;6065908;23;90464;-69
2021/12/07 02:39:35;;;;;;;22.52;14.02;;;3.90;83.20;;;;;;6065667;23;91048;-69
2021/12/07 02:42:05;;;;;;;18.90;12.65;;;4.00;83.10;;;;;;6066161;23;90917;-69
2021/12/07 02:44:33;;;;;;;19.10;12.35;;;4.00;82.90;;;;;;6065796;23;91595;-68
2021/12/07 02:47:04;;;;;;;19.95;12.80;;;4.00;82.70;;;;;;6065964;23;88417;-69
2021/12/07 02:49:31;;;;;;;19.73;12.68;;;4.00;82.90;;;;;;6066928;23;89664;-69
2021/12/07 02:52:00;;;;;;;19.33;12.40;;;4.00;82.90;;;;;;6066172;23;89014;-68
2021/12/07 02:54:27;;;;;;;19.10;12.13;;;3.90;83.00;;;;;;6065464;23;91079;-69
2021/12/07 02:56:54;;;;;;;17.40;11.40;;;3.90;83.70;;;;;;6065864;23;91164;-69
2021/12/07 02:59:22;;;;;;;18.00;12.40;;;3.90;83.70;;;;;;6067535;23;88658;-69
2021/12/07 03:02:10;;;;;;;18.58;12.05;;;3.90;83.20;;;;;;6065701;23;92344;-69
2021/12/07 03:04:44;;;;;;;17.58;11.55;;;3.90;83.00;;;;;;6069976;23;91519;-69
2021/12/07 03:07:24;;;;;;;19.30;12.73;;;3.90;83.20;;;;;;6066727;23;88406;-69
2021/12/07 03:25:47;;;;;;;16.45;11.60;;;3.90;83.20;;;;;;6068668;23;90057;-70
2021/12/07 03:26:29;;;;;;;16.55;11.90;;;4.00;82.40;;;;;;6068551;23;88609;-69
2021/12/07 03:28:59;;;;;;;18.38;11.63;;;4.00;82.30;;;;;;6066859;23;88530;-69
2021/12/07 03:31:29;;;;;;;16.52;12.10;;;4.00;82.40;;;;;;6066609;23;90878;-70
2021/12/07 03:34:00;;;;;;;15.63;10.85;;;4.00;82.30;;;;;;6068348;23;90296;-69
2021/12/07 03:36:30;;;;;;;22.55;11.00;;;4.00;82.40;;;;;;6066709;23;90185;-69
2021/12/07 03:38:59;;;;;;;14.85;10.93;;;4.00;82.10;;;;;;6043381;23;90662;-69
2021/12/07 03:41:26;;;;;;;16.10;10.75;;;4.00;82.30;;;;;;6042554;23;91149;-70
2021/12/07 03:43:53;;;;;;;16.05;11.25;;;4.10;82.20;;;;;;6091316;23;91590;-70
2021/12/07 03:46:21;;;;;;;16.92;11.85;;;4.10;82.80;;;;;;6091246;23;91633;-69
2021/12/07 03:48:49;;;;;;;15.15;11.00;;;4.10;82.50;;;;;;6067939;23;88432;-69
2021/12/07 03:51:16;;;;;;;17.73;11.52;;;4.10;82.20;;;;;;6068167;23;90685;-69
2021/12/07 03:53:43;;;;;;;14.63;11.10;;;4.10;82.40;;;;;;6068483;23;89033;-69
2021/12/07 03:56:11;;;;;;;17.90;11.65;;;4.10;82.90;;;;;;6042402;23;90947;-69
2021/12/07 03:58:41;;;;;;;18.30;12.85;;;4.00;82.40;;;;;;6042113;23;90995;-70
2021/12/07 04:01:11;;;;;;;16.13;11.77;;;4.00;83.10;;;;;;6068421;23;88433;-69
2021/12/07 04:03:40;;;;;;;18.77;13.02;;;4.00;82.50;;;;;;6041939;23;91291;-69
2021/12/07 04:06:09;;;;;;;19.13;12.77;;;4.00;82.30;;;;;;6066257;23;91358;-69
2021/12/07 04:08:41;;;;;;;19.50;12.90;;;4.10;82.50;;;;;;6018787;23;89846;-69
2021/12/07 04:11:13;;;;;;;;;;;4.10;83.40;;;;;;6042950;23;90558;-69
2021/12/07 04:13:40;;;;;;;17.42;13.25;;;4.10;82.60;;;;;;6044494;23;89828;-69
2021/12/07 04:16:08;;;;;;;17.80;13.68;;;4.10;82.50;;;;;;6043212;23;88485;-69
2021/12/07 04:18:38;;;;;;;22.58;14.07;;;4.20;82.60;;;;;;6042903;23;90427;-69
2021/12/07 04:21:05;;;;;;;20.85;13.15;;;4.10;82.60;;;;;;6042399;23;90986;-69
2021/12/07 04:23:34;;;;;;;20.65;14.52;;;4.10;82.70;;;;;;6042106;23;91968;-69
2021/12/07 04:26:04;;;;;;;23.25;14.23;;;4.20;82.70;;;;;;6068329;23;93939;-69
2021/12/07 04:28:31;;;;;;;21.35;14.32;;;4.20;82.70;;;;;;6042094;23;89485;-69
2021/12/07 04:30:59;;;;;;;21.90;14.77;;;4.20;82.50;;;;;;6068451;23;88612;-69
2021/12/07 04:33:29;;;;;;;23.90;14.50;;;4.20;82.30;;;;;;6068604;23;89095;-69
2021/12/07 04:35:56;;;;;;;24.50;15.02;;;4.20;82.30;;;;;;6068051;23;89015;-70
2021/12/07 04:38:24;;;;;;;21.52;14.50;;;4.20;82.10;;;;;;6042347;23;89328;-69
2021/12/07 04:40:51;;;;;;;21.92;14.68;;;4.20;82.20;;;;;;6042268;23;91630;-69
2021/12/07 04:43:18;;;;;;;20.30;13.25;;;4.20;82.20;;;;;;6066816;23;90645;-70
2021/12/07 04:59:10;;;;;;;21.08;13.82;;;4.10;82.00;;;;;;6068492;23;88397;-69
2021/12/07 05:01:38;;;;;;;21.33;13.18;;;4.10;82.30;;;;;;6041975;23;92616;-69
2021/12/07 05:04:19;;;;;;;24.27;14.90;;;4.00;82.40;;;;;;6066660;23;90414;-69
2021/12/07 05:06:53;;;;;;;22.92;14.80;;;3.90;82.30;;;;;;6068148;23;88456;-70
2021/12/07 05:14:27;;;;;;;26.05;14.82;;;3.70;83.00;;;;;;6068264;23;89230;-69
2021/12/07 05:38:48;;;;;;;30.17;15.93;;;3.20;84.60;;;;;;6066312;23;89957;-69
2021/12/07 05:41:15;;;;;;;30.90;15.73;;;3.10;84.80;;;;;;6066316;23;89907;-69
2021/12/07 05:43:42;;;;;;;33.75;18.15;;;3.10;85.00;;;;;;6066504;23;89349;-69
2021/12/07 05:46:09;;;;;;;40.60;23.30;;;3.00;85.30;;;;;;6066799;23;89168;-69
2021/12/07 05:48:36;;;;;;;54.08;32.45;;;3.00;85.20;;;;;;6068022;23;88785;-69
2021/12/07 05:51:03;;;;;;;41.10;24.08;;;3.00;85.30;;;;;;6066776;23;102756;-69
2021/12/07 05:53:30;;;;;;;33.42;18.48;;;3.00;85.50;;;;;;6067932;23;89249;-69
2021/12/07 05:55:57;;;;;;;34.92;18.92;;;3.00;85.60;;;;;;6067787;23;89124;-69
2021/12/07 05:58:24;;;;;;;29.17;15.57;;;2.90;85.50;;;;;;6067978;23;88568;-69
2021/12/07 06:00:57;;;;;;;31.67;16.42;;;2.90;85.50;;;;;;6066100;23;88543;-70
2021/12/07 06:03:27;;;;;;;30.83;15.63;;;2.90;85.70;;;;;;6043604;23;89815;-69
2021/12/07 06:05:55;;;;;;;32.40;16.65;;;2.90;85.60;;;;;;6066177;23;89095;-69
2021/12/07 06:08:22;;;;;;;34.72;17.60;;;2.90;85.70;;;;;;6067943;23;88584;-69
2021/12/07 06:10:49;;;;;;;34.00;15.23;;;2.80;86.00;;;;;;6067989;23;90189;-69
2021/12/07 06:13:20;;;;;;;26.27;14.45;;;2.80;86.00;;;;;;6066412;23;89922;-69
2021/12/07 06:15:48;;;;;;;32.20;15.52;;;2.80;86.50;;;;;;6065953;23;90261;-70
2021/12/07 06:18:15;;;;;;;31.40;15.30;;;2.80;86.30;;;;;;6067180;23;104372;-76
2021/12/07 06:20:42;;;;;;;31.35;14.45;;;2.80;86.20;;;;;;6066580;23;88430;-76
2021/12/07 06:23:13;;;;;;;33.85;14.98;;;2.80;86.40;;;;;;6067649;23;88670;-69
2021/12/07 06:25:40;;;;;;;31.70;15.60;;;2.80;86.30;;;;;;6068121;23;88881;-69
2021/12/07 06:28:08;;;;;;;30.08;17.25;;;2.80;86.30;;;;;;6067553;23;88613;-69
2021/12/07 06:30:39;;;;;;;30.60;17.48;;;2.80;86.10;;;;;;6067946;23;88464;-69
2021/12/07 06:33:07;;;;;;;30.65;18.38;;;2.80;86.10;;;;;;6067519;23;88606;-69
2021/12/07 06:35:34;;;;;;;30.65;15.55;;;2.90;86.20;;;;;;6068039;23;91050;-69
2021/12/07 06:38:01;;;;;;;27.77;13.98;;;2.90;86.20;;;;;;6066015;23;88733;-69
2021/12/07 06:40:28;;;;;;;28.20;13.30;;;3.00;86.20;;;;;;6067676;23;88408;-69
2021/12/07 06:42:59;;;;;;;22.38;12.25;;;3.00;85.90;;;;;;6064821;23;109844;-69
2021/12/07 06:45:28;;;;;;;28.73;14.02;;;3.00;85.70;;;;;;6067939;23;89257;-69
2021/12/07 06:47:56;;;;;;;26.73;14.02;;;3.00;85.90;;;;;;6041109;23;89815;-69
2021/12/07 06:50:25;;;;;;;24.38;14.07;;;3.00;85.70;;;;;;6067468;23;88510;-69
2021/12/07 06:52:52;;;;;;;28.70;14.27;;;2.90;85.60;;;;;;6041222;23;89978;-69
2021/12/07 06:55:19;;;;;;;23.88;12.60;;;2.90;85.60;;;;;;6041619;23;92218;-69
2021/12/07 06:57:47;;;;;;;23.50;13.63;;;2.80;85.50;;;;;;6065824;23;91871;-70
2021/12/07 07:00:16;;;;;;;28.17;13.82;;;2.80;85.70;;;;;;6067660;23;88508;-69
2021/12/07 07:02:43;;;;;;;23.58;12.88;;;2.80;85.70;;;;;;6066226;23;88520;-69
2021/12/07 07:05:11;;;;;;;28.83;12.82;;;2.80;85.90;;;;;;6065604;23;89225;-69
2021/12/07 07:07:40;;;;;;;27.38;12.02;;;2.70;86.10;;;;;;6067442;23;89119;-69
2021/12/07 07:10:10;;;;;;;28.05;12.05;;;2.70;86.20;;;;;;6066955;23;95236;-69
2021/12/07 07:12:37;;;;;;;24.90;11.70;;;2.70;86.20;;;;;;6067617;23;88584;-69
2021/12/07 07:15:05;;;;;;;25.98;12.65;;;2.60;86.20;;;;;;6067054;23;89168;-69
2021/12/07 07:17:33;;;;;;;29.25;13.13;;;2.60;86.20;;;;;;6065918;23;88711;-69
2021/12/07 07:20:02;;;;;;;24.00;11.85;;;2.60;86.40;;;;;;6067126;23;88475;-69
2021/12/07 07:22:29;;;;;;;29.30;12.73;;;2.60;86.50;;;;;;6065968;23;88586;-68
2021/12/07 07:24:56;;;;;;;26.25;12.35;;;2.60;86.60;;;;;;6067120;23;90216;-69
2021/12/07 07:27:24;;;;;;;33.15;14.98;;;2.60;86.80;;;;;;6067352;23;88611;-69
2021/12/07 07:29:51;;;;;;;24.77;12.10;;;2.60;86.90;;;;;;6065523;23;90160;-68
2021/12/07 07:32:18;;;;;;;29.95;12.85;;;2.60;87.00;;;;;;6065046;23;91988;-68
2021/12/07 07:34:45;;;;;;;32.28;13.60;;;2.60;87.10;;;;;;6067156;23;89170;-69
2021/12/07 07:37:12;;;;;;;27.00;13.38;;;2.60;87.30;;;;;;6041091;23;89866;-69
2021/12/07 07:39:41;;;;;;;25.30;12.90;;;2.60;87.30;;;;;;6065517;23;88813;-69
2021/12/07 07:42:09;;;;;;;27.67;11.55;;;2.60;87.30;;;;;;6066926;23;88631;-68
2021/12/07 07:44:53;;;;;;;27.75;12.65;;;2.60;87.50;;;;;;6065641;23;90822;-68
2021/12/07 07:47:20;;;;;;;29.77;13.25;;;2.70;87.50;;;;;;6066951;23;88779;-68
2021/12/07 07:49:48;;;;;;;28.60;13.02;;;2.70;87.40;;;;;;6067054;23;88428;-69
2021/12/07 07:52:15;;;;;;;27.35;11.98;;;2.70;87.40;;;;;;6065368;23;89682;-68
2021/12/07 07:54:42;;;;;;;29.02;12.20;;;2.80;87.40;;;;;;6066763;23;90510;-68
2021/12/07 07:57:10;;;;;;;31.52;13.27;;;2.80;87.60;;;;;;6042273;23;91418;-68
2021/12/07 07:59:39;;;;;;;28.75;12.45;;;2.90;87.40;;;;;;6068626;23;88412;-69
2021/12/07 08:02:07;;;;;;;25.60;11.68;;;2.90;87.10;;;;;;6068239;23;88499;-69
2021/12/07 08:04:34;;;;;;;25.40;12.25;;;3.00;87.00;;;;;;6067107;23;88546;-68
2021/12/07 08:07:02;;;;;;;21.65;10.98;;;2.90;86.90;;;;;;6042150;23;97208;-69
2021/12/07 08:09:29;;;;;;;26.00;11.43;;;3.00;86.90;;;;;;6066952;23;88315;-69
2021/12/07 08:11:56;;;;;;;22.58;11.20;;;3.00;86.80;;;;;;6068534;23;88529;-69
2021/12/07 08:14:23;;;;;;;29.40;11.85;;;3.10;86.70;;;;;;6066985;23;89140;-69
2021/12/07 08:16:50;;;;;;;23.90;12.15;;;3.10;86.60;;;;;;6043017;23;88691;-69
2021/12/07 08:19:17;;;;;;;28.65;13.48;;;3.10;86.40;;;;;;6042417;23;89001;-69
2021/12/07 08:21:44;;;;;;;23.90;12.07;;;3.10;86.70;;;;;;6068219;23;89288;-69
2021/12/07 08:24:11;;;;;;;23.10;11.93;;;3.10;86.60;;;;;;6068145;23;89109;-69
2021/12/07 08:26:38;;;;;;;23.58;12.02;;;3.20;86.70;;;;;;6068577;23;88617;-69
2021/12/07 08:29:05;;;;;;;23.80;11.73;;;3.20;86.60;;;;;;6068076;23;88374;-69
2021/12/07 08:31:32;;;;;;;21.30;10.65;;;3.20;86.40;;;;;;6068471;23;88857;-69
2021/12/07 08:34:00;;;;;;;23.45;12.32;;;3.20;86.20;;;;;;6066797;23;90789;-69
2021/12/07 08:36:29;;;;;;;25.77;12.32;;;3.20;86.10;;;;;;6066692;23;90508;-70
2021/12/07 08:38:56;;;;;;;24.23;11.60;;;3.20;86.10;;;;;;6068309;23;95858;-69
2021/12/07 08:41:24;;;;;;;28.88;12.98;;;3.20;86.00;;;;;;6042485;23;89091;-69
2021/12/07 08:43:51;;;;;;;26.42;12.27;;;3.20;86.00;;;;;;6068385;23;89189;-69
2021/12/07 08:46:18;;;;;;;22.75;11.90;;;3.20;86.60;;;;;;6066380;23;88791;-69
2021/12/07 08:48:46;;;;;;;23.67;12.00;;;3.30;86.10;;;;;;6068103;23;88394;-69
2021/12/07 08:51:14;;;;;;;24.35;11.27;;;3.30;86.00;;;;;;6067520;23;88692;-69
2021/12/07 08:54:20;;;;;;;25.05;15.95;;;3.40;85.90;;;;;;6068462;23;89418;-69
2021/12/07 09:02:01;;;;;;;22.02;11.98;;;3.50;85.60;;;;;;6067141;23;88523;-69
2021/12/07 09:04:28;;;;;;;20.13;11.63;;;3.50;86.20;;;;;;6068191;23;89201;-73
2021/12/07 09:06:55;;;;;;;23.25;12.20;;;3.60;85.50;;;;;;6068305;23;88766;-70
2021/12/07 09:09:23;;;;;;;28.67;11.82;;;3.60;85.40;;;;;;6067964;23;88434;-71
2021/12/07 09:11:53;;;;;;;21.95;11.50;;;3.70;85.40;;;;;;6067953;23;89241;-70
2021/12/07 09:14:19;;;;;;;25.02;11.40;;;3.70;85.80;;;;;;6067922;23;88333;-68
2021/12/07 09:16:47;;;;;;;23.92;11.20;;;3.80;85.70;;;;;;6068279;23;88535;-68
2021/12/07 09:19:15;;;;;;;18.25;10.27;;;3.80;85.90;;;;;;6068019;23;88928;-68
2021/12/07 09:21:42;;;;;;;23.88;11.50;;;3.90;85.80;;;;;;6091041;23;89881;-68
2021/12/07 09:24:09;;;;;;;23.95;13.15;;;3.90;85.70;;;;;;6067900;23;89172;-68
2021/12/07 09:26:37;;;;;;;24.58;12.68;;;4.00;85.50;;;;;;6042348;23;91012;-68
2021/12/07 09:29:05;;;;;;;22.85;12.50;;;4.00;85.50;;;;;;6068326;23;88443;-68
2021/12/07 09:31:33;;;;;;;20.25;10.68;;;4.10;85.30;;;;;;6067901;23;88488;-68
2021/12/07 09:34:02;;;;;;;26.45;14.68;;;4.10;85.40;;;;;;6068176;23;88490;-68
2021/12/07 09:36:29;;;;;;;20.17;10.13;;;4.20;85.60;;;;;;6067665;23;88632;-68
2021/12/07 09:38:56;;;;;;;19.08;9.82;;;4.20;85.40;;;;;;6066585;23;89813;-69
2021/12/07 09:41:23;;;;;;;19.90;10.10;;;4.30;85.40;;;;;;6067284;23;88599;-68
2021/12/07 09:43:51;;;;;;;21.63;10.20;;;4.30;85.40;;;;;;6068124;23;89226;-69
2021/12/07 09:46:18;;;;;;;20.92;9.63;;;4.40;85.20;;;;;;6066544;23;88786;-68
2021/12/07 09:48:47;;;;;;;25.40;14.07;;;4.50;85.00;;;;;;6067467;23;87937;-68
2021/12/07 09:51:17;;;;;;;20.95;12.60;;;4.50;85.10;;;;;;6067364;23;88636;-68
2021/12/07 09:53:46;;;;;;;21.85;11.50;;;4.60;85.10;;;;;;6068362;23;88408;-68
2021/12/07 09:56:14;;;;;;;22.73;11.05;;;4.60;84.90;;;;;;6067709;23;88716;-68
2021/12/07 09:58:41;;;;;;;18.50;11.07;;;4.70;84.70;;;;;;6068096;23;88484;-68
2021/12/07 10:01:09;;;;;;;19.20;9.93;;;4.70;84.40;;;;;;6067750;23;89300;-68
2021/12/07 10:03:37;;;;;;;19.50;9.60;;;4.80;84.60;;;;;;6066968;23;89119;-68
2021/12/07 10:06:06;;;;;;;22.23;13.07;;;4.80;84.40;;;;;;6042737;23;88136;-69
2021/12/07 10:08:33;;;;;;;19.90;11.13;;;4.90;84.30;;;;;;6067713;23;88431;-68
2021/12/07 10:11:03;;;;;;;25.95;10.18;;;4.90;84.30;;;;;;6067641;23;89753;-68
2021/12/07 10:13:31;;;;;;;20.00;9.68;;;5.00;84.10;;;;;;6066319;23;89223;-68
2021/12/07 10:16:04;;;;;;;17.52;8.85;;;5.00;83.90;;;;;;6068479;23;87911;-67
2021/12/07 10:18:35;;;;;;;16.63;9.52;;;5.10;83.80;;;;;;6067539;23;89272;-69
2021/12/07 10:21:18;;;;;;;17.08;8.93;;;5.10;83.70;;;;;;6067427;23;88762;-68
2021/12/07 10:23:50;;;;;;;17.02;7.93;;;5.20;84.10;;;;;;6068774;23;88425;-68
2021/12/07 10:26:35;;;;;;;14.38;8.18;;;5.30;83.90;;;;;;6068229;23;88603;-68
2021/12/07 10:29:12;;;;;;;15.00;7.80;;;5.30;84.00;;;;;;6068841;23;88255;-68
2021/12/07 10:31:54;;;;;;;15.30;7.25;;;5.50;84.10;;;;;;6068502;23;88672;-69
2021/12/07 10:34:23;;;;;;;18.73;9.60;;;5.60;84.20;;;;;;6068633;23;88053;-68
2021/12/07 10:37:15;;;;;;;25.50;16.60;;;5.60;84.40;;;;;;6069044;23;88322;-68
2021/12/07 10:39:55;;;;;;;11.80;7.05;;;5.60;83.60;;;;;;6065928;23;88434;-68
2021/12/07 10:42:29;;;;;;;14.32;6.93;;;5.70;83.60;;;;;;6068428;23;87975;-68
2021/12/07 10:45:01;;;;;;;13.93;7.32;;;5.70;83.10;;;;;;6069300;23;88402;-68
2021/12/07 10:47:28;;;;;;;13.50;6.78;;;5.70;83.50;;;;;;6066975;23;87978;-68
2021/12/07 10:49:59;;;;;;;13.98;6.85;;;5.80;83.40;;;;;;6068061;23;88093;-68
2021/12/07 10:52:35;;;;;;;13.50;6.93;;;5.80;83.30;;;;;;6067963;23;89317;-74
2021/12/07 10:55:08;;;;;;;15.27;6.97;;;5.90;83.70;;;;;;6066940;23;90200;-74
2021/12/07 10:57:57;;;;;;;13.07;5.95;;;5.90;83.80;;;;;;6068340;23;88346;-75
2021/12/07 11:00:29;;;;;;;18.30;6.22;;;6.00;83.50;;;;;;6068404;23;88199;-74
2021/12/07 11:02:59;;;;;;;15.85;6.93;;;6.10;83.40;;;;;;6068674;23;87869;-75
2021/12/07 11:05:46;;;;;;;16.83;6.90;;;6.20;83.90;;;;;;6068162;23;88438;-75
2021/12/07 11:08:15;;;;;;;13.70;6.55;;;6.30;83.70;;;;;;6068771;23;88218;-75
2021/12/07 11:10:49;;;;;;;15.57;7.22;;;6.30;83.20;;;;;;6066710;23;88275;-75
2021/12/07 11:13:24;;;;;;;12.88;5.97;;;6.40;82.60;;;;;;6068418;23;88539;-74
2021/12/07 11:15:56;;;;;;;11.77;6.50;;;6.40;82.60;;;;;;6068329;23;88672;-74
2021/12/07 11:18:36;;;;;;;14.73;6.53;;;6.50;82.80;;;;;;6067751;23;88737;-74
2021/12/07 11:21:04;;;;;;;12.60;5.47;;;6.50;82.40;;;;;;6066941;23;87998;-74
2021/12/07 11:23:35;;;;;;;16.60;6.97;;;6.50;82.40;;;;;;6068025;23;88569;-74
2021/12/07 11:31:38;;;;;;;15.02;5.93;;;6.70;82.50;;;;;;6069627;23;88089;-74
2021/12/07 11:34:31;;;;;;;11.90;5.78;;;6.70;82.50;;;;;;6069643;23;88240;-74
2021/12/07 11:37:11;;;;;;;15.95;6.00;;;6.80;82.10;;;;;;6068421;23;89547;-74
2021/12/07 11:39:57;;;;;;;11.23;5.80;;;6.80;82.40;;;;;;6069364;23;89959;-74
2021/12/07 11:42:28;;;;;;;8.50;5.50;;;6.90;82.30;;;;;;6069766;23;88336;-74
2021/12/07 11:44:58;;;;;;;12.38;5.60;;;6.90;82.00;;;;;;6069370;23;89377;-74
2021/12/07 11:47:30;;;;;;;12.20;5.40;;;7.00;82.10;;;;;;6068087;23;90300;-74
2021/12/07 11:49:58;;;;;;;11.25;5.50;;;7.00;82.00;;;;;;6069383;23;88054;-74
2021/12/07 11:52:25;;;;;;;15.32;6.25;;;7.10;81.80;;;;;;6069502;23;90205;-74
2021/12/07 11:54:53;;;;;;;13.57;5.80;;;7.10;81.50;;;;;;6067948;23;90473;-74
2021/12/07 11:57:21;;;;;;;15.98;5.90;;;7.20;81.30;;;;;;6069494;23;88435;-74
2021/12/07 11:59:49;;;;;;;12.95;5.00;;;7.20;81.20;;;;;;6069523;23;88065;-74
2021/12/07 12:02:18;;;;;;;15.57;5.32;;;7.30;81.00;;;;;;6069778;23;91614;-74
2021/12/07 12:04:46;;;;;;;12.00;5.25;;;7.30;81.00;;;;;;6067342;23;89697;-74
2021/12/07 12:07:14;;;;;;;14.35;5.07;;;7.40;81.00;;;;;;6068977;23;98186;-74
2021/12/07 12:09:47;;;;;;;13.25;5.78;;;7.40;80.60;;;;;;6068708;23;88707;-74
2021/12/07 12:12:20;;;;;;;11.37;5.60;;;7.40;80.50;;;;;;6067900;23;89425;-74
2021/12/07 12:15:05;;;;;;;13.45;4.80;;;7.40;80.60;;;;;;6067811;23;88617;-74
2021/12/07 12:17:53;;;;;;;11.52;4.47;;;7.50;80.10;;;;;;6067608;23;88317;-74
2021/12/07 12:20:29;;;;;;;15.52;6.78;;;7.50;80.00;;;;;;6069755;23;88327;-74
2021/12/07 12:23:19;;;;;;;13.23;5.70;;;7.50;80.20;;;;;;6069579;23;88294;-74
2021/12/07 12:25:55;;;;;;;15.25;6.00;;;7.60;79.50;;;;;;6069127;23;88497;-74
2021/12/07 12:28:49;;;;;;;11.35;5.18;;;7.60;79.80;;;;;;6069898;23;88349;-74
2021/12/07 12:31:19;;;;;;;10.47;5.77;;;7.60;79.50;;;;;;6069387;23;87975;-74
2021/12/07 12:33:56;;;;;;;10.57;5.30;;;7.60;79.40;;;;;;6068763;23;88017;-74
2021/12/07 12:36:25;;;;;;;10.82;5.05;;;7.70;79.60;;;;;;6067215;23;90420;-74
2021/12/07 12:39:04;;;;;;;14.82;5.72;;;7.70;79.70;;;;;;6068856;23;89453;-74
2021/12/07 12:41:31;;;;;;;11.18;5.50;;;7.70;79.60;;;;;;6069320;23;87871;-74
2021/12/07 12:44:10;;;;;;;13.00;5.80;;;7.70;79.40;;;;;;6068856;23;89302;-74
2021/12/07 12:46:37;;;;;;;16.00;5.63;;;7.70;79.60;;;;;;6068947;23;88915;-74
2021/12/07 12:49:10;;;;;;;10.50;5.47;;;7.70;79.60;;;;;;6067790;23;88557;-74
2021/12/07 12:51:50;;;;;;;13.73;6.40;;;7.70;79.70;;;;;;6067196;23;88020;-74
2021/12/07 12:54:19;;;;;;;11.35;5.55;;;7.70;79.60;;;;;;6069584;23;93193;-74
2021/12/07 12:56:47;;;;;;;8.30;4.80;;;7.70;79.70;;;;;;6067033;23;90016;-68
2021/12/07 12:59:14;;;;;;;12.13;5.80;;;7.70;79.50;;;;;;6069192;23;88348;-67
2021/12/07 13:01:43;;;;;;;17.58;5.75;;;7.70;79.20;;;;;;6066805;23;88596;-74
2021/12/07 13:04:28;;;;;;;15.98;5.93;;;7.70;79.10;;;;;;6069269;23;88448;-74
2021/12/07 13:09:45;;;;;;;12.05;5.82;;;7.70;79.80;;;;;;6068961;23;88328;-72
2021/12/07 13:12:18;;;;;;;16.13;6.57;;;7.70;79.30;;;;;;6069385;23;88321;-72
2021/12/07 13:15:20;;;;;;;19.88;6.47;;;7.80;79.80;;;;;;6066902;23;89325;-72
2021/12/07 13:17:48;;;;;;;15.60;5.68;;;7.70;79.20;;;;;;6068758;23;88542;-71
2021/12/07 13:20:29;;;;;;;11.50;5.90;;;7.70;79.20;;;;;;6069549;23;88232;-72
2021/12/07 13:23:02;;;;;;;10.98;6.20;;;7.70;79.20;;;;;;6068960;23;87964;-71
2021/12/07 13:25:58;;;;;;;13.63;5.43;;;7.70;79.10;;;;;;6067516;23;89307;-71
2021/12/07 13:28:33;;;;;;;15.63;5.97;;;7.80;79.20;;;;;;6055289;23;95776;-71
2021/12/07 13:31:09;;;;;;;13.95;6.05;;;7.70;79.80;;;;;;6068668;23;88028;-71
2021/12/07 13:34:03;;;;;;;15.27;6.20;;;7.70;79.40;;;;;;6069202;23;87966;-71
2021/12/07 13:36:45;;;;;;;9.68;5.85;;;7.80;78.70;;;;;;6067758;23;88236;-71
2021/12/07 13:39:12;;;;;;;11.02;6.45;;;7.70;78.70;;;;;;6069062;23;88510;-71
2021/12/07 13:42:04;;;;;;;12.57;5.63;;;7.70;79.20;;;;;;6067286;23;88693;-72
2021/12/07 13:44:36;;;;;;;10.98;6.40;;;7.70;78.70;;;;;;6069224;23;88265;-72
2021/12/07 13:47:11;;;;;;;14.30;6.75;;;7.60;79.60;;;;;;6068976;23;87449;-71
2021/12/07 13:49:41;;;;;;;11.80;6.13;;;7.60;79.40;;;;;;6068232;23;89311;-71
2021/12/07 13:52:18;;;;;;;12.65;5.80;;;7.60;79.20;;;;;;6068874;23;88345;-71
2021/12/07 13:54:48;;;;;;;14.25;6.15;;;7.60;79.70;;;;;;6068347;23;88693;-71
2021/12/07 13:57:18;;;;;;;14.98;6.53;;;7.50;79.50;;;;;;6068956;23;88625;-71
2021/12/07 13:59:57;;;;;;;11.88;5.97;;;7.50;79.20;;;;;;6067229;23;88507;-72
2021/12/07 14:02:25;;;;;;;14.98;6.93;;;7.40;79.40;;;;;;6068895;23;88441;-71
2021/12/07 14:05:13;;;;;;;10.23;5.93;;;7.30;79.50;;;;;;6068376;23;97286;-71
2021/12/07 14:07:41;;;;;;;15.32;6.78;;;7.40;79.60;;;;;;6068952;23;88328;-71
2021/12/07 14:10:14;;;;;;;14.90;6.40;;;7.30;79.50;;;;;;6067231;23;88592;-71
2021/12/07 14:12:42;;;;;;;12.85;6.25;;;7.30;79.90;;;;;;6069323;23;88352;-71
2021/12/07 14:15:14;;;;;;;15.38;6.00;;;7.20;79.50;;;;;;6068236;23;96966;-71
2021/12/07 14:17:45;;;;;;;13.48;6.10;;;7.10;79.80;;;;;;6069098;23;88020;-71
2021/12/07 14:20:12;;;;;;;15.05;6.20;;;7.10;80.20;;;;;;6068567;23;90453;-71
2021/12/07 14:22:45;;;;;;;13.52;6.63;;;7.00;80.50;;;;;;6068699;23;89150;-71
2021/12/07 14:25:17;;;;;;;20.58;6.82;;;6.90;80.80;;;;;;6068965;23;87874;-72
2021/12/07 14:27:46;;;;;;;14.30;7.20;;;6.90;81.30;;;;;;6068868;23;88017;-72
2021/12/07 14:30:15;;;;;;;14.27;7.15;;;6.90;81.50;;;;;;6066731;23;89703;-72
2021/12/07 14:32:43;;;;;;;14.80;7.60;;;6.80;82.10;;;;;;6068795;23;88343;-71
2021/12/07 14:35:11;;;;;;;16.60;7.00;;;6.80;81.20;;;;;;6068399;23;87871;-72
2021/12/07 14:37:38;;;;;;;14.05;7.20;;;6.70;81.40;;;;;;6069245;23;88124;-72
2021/12/07 14:40:07;;;;;;;15.40;7.97;;;6.60;81.60;;;;;;6066529;23;90238;-72
2021/12/07 14:42:34;;;;;;;19.15;9.07;;;6.60;81.90;;;;;;6068664;23;88490;-72